Time;durP1;ratioP1;P1;durP2;ratioP2;P2;SDS_P1;SDS_P2;PMS_P1;PMS_P2;Temp;Humidity;BMP_temperature;BMP_pressure;BME280_temperature;BME280_humidity;BME280_pressure;Samples;Min_cycle;Max_cycle;Signal;HPM_P1;HPM_P2
2021/06/06 00:00:21;;;;;;;2.50;2.22;;;16.00;88.90;;;;;;5092565;28;20027;-74
2021/06/06 00:02:46;;;;;;;2.40;2.20;;;16.00;88.80;;;;;;5092554;28;20020;-74
2021/06/06 00:05:14;;;;;;;3.88;2.67;;;16.10;88.40;;;;;;5092458;28;20107;-75
2021/06/06 00:07:39;;;;;;;4.43;2.95;;;16.00;87.60;;;;;;5092248;28;20423;-74
2021/06/06 00:10:06;;;;;;;4.25;3.15;;;16.00;87.40;;;;;;5092337;28;20097;-74
2021/06/06 00:12:33;;;;;;;3.70;2.95;;;16.00;87.40;;;;;;5092430;28;20016;-74
2021/06/06 00:14:59;;;;;;;4.32;3.55;;;15.90;87.10;;;;;;5092332;28;20033;-74
2021/06/06 00:17:24;;;;;;;4.25;3.17;;;15.80;87.60;;;;;;5092673;28;20027;-77
2021/06/06 00:19:50;;;;;;;3.03;2.58;;;15.90;87.60;;;;;;5092986;28;20035;-82
2021/06/06 00:22:15;;;;;;;3.97;3.50;;;15.90;87.60;;;;;;5095735;28;20016;-82
2021/06/06 00:24:41;;;;;;;4.15;3.03;;;15.90;87.20;;;;;;5092924;28;20035;-77
2021/06/06 00:27:07;;;;;;;8.15;4.00;;;15.90;87.10;;;;;;5098829;28;20020;-76
2021/06/06 00:29:33;;;;;;;4.28;3.08;;;15.90;87.60;;;;;;5108394;28;20036;-73
2021/06/06 00:31:58;;;;;;;5.32;4.13;;;15.90;86.60;;;;;;5101587;28;20027;-74
2021/06/06 00:34:27;;;;;;;4.65;3.47;;;15.90;86.40;;;;;;5097018;28;20036;-74
2021/06/06 00:36:53;;;;;;;3.95;3.60;;;15.90;85.90;;;;;;5096018;28;20020;-73
2021/06/06 00:39:19;;;;;;;4.22;3.83;;;15.90;85.40;;;;;;5096001;28;20016;-76
2021/06/06 00:41:46;;;;;;;4.72;3.72;;;15.80;85.00;;;;;;5096269;28;20027;-81
2021/06/06 00:44:13;;;;;;;4.93;3.95;;;15.70;85.80;;;;;;5096493;28;20423;-82
2021/06/06 00:46:39;;;;;;;5.30;4.10;;;15.60;85.80;;;;;;5096188;28;20078;-79
2021/06/06 00:49:06;;;;;;;4.85;3.72;;;15.50;86.80;;;;;;5095744;28;20024;-78
2021/06/06 00:51:49;;;;;;;6.93;4.60;;;15.60;87.20;;;;;;5095816;28;20103;-78
2021/06/06 00:54:29;;;;;;;5.70;4.43;;;15.60;86.10;;;;;;5095422;28;20045;-86
2021/06/06 00:57:15;;;;;;;5.80;4.50;;;15.70;85.70;;;;;;5095923;28;20020;-79
2021/06/06 00:59:48;;;;;;;5.57;4.75;;;15.60;85.90;;;;;;5096077;28;20024;-82
2021/06/06 01:02:14;;;;;;;4.70;4.10;;;15.50;86.30;;;;;;5099331;28;20035;-76
2021/06/06 01:04:43;;;;;;;6.75;4.95;;;15.60;87.10;;;;;;5097872;28;20036;-74
2021/06/06 01:07:09;;;;;;;7.50;5.18;;;15.50;86.80;;;;;;5097982;28;20024;-73
2021/06/06 01:09:35;;;;;;;8.20;5.35;;;15.50;87.60;;;;;;5098286;28;20028;-75
2021/06/06 01:12:36;;;;;;;7.15;5.80;;;15.40;88.00;;;;;;5099070;28;20106;-75
2021/06/06 01:15:11;;;;;;;7.90;5.93;;;15.50;86.80;;;;;;5091306;28;20040;-73
2021/06/06 01:17:52;;;;;;;8.32;6.30;;;15.60;86.70;;;;;;5096856;28;20031;-75
2021/06/06 01:20:49;;;;;;;6.72;5.97;;;15.60;86.60;;;;;;5096633;28;20016;-74
2021/06/06 01:23:39;;;;;;;8.23;6.60;;;15.60;86.30;;;;;;5094975;28;20023;-75
2021/06/06 01:26:37;;;;;;;8.18;6.30;;;15.60;86.40;;;;;;5094864;28;20056;-75
2021/06/06 01:29:14;;;;;;;10.75;7.15;;;15.60;86.50;;;;;;5079469;28;20500;-81
2021/06/06 01:31:42;;;;;;;10.23;8.02;;;15.60;86.50;;;;;;5095738;28;20050;-83
2021/06/06 01:34:11;;;;;;;9.60;8.13;;;15.40;87.90;;;;;;5095825;28;20020;-75
2021/06/06 01:37:03;;;;;;;11.00;8.60;;;15.30;89.50;;;;;;5096013;28;20071;-81
2021/06/06 01:39:37;;;;;;;12.85;8.50;;;15.20;89.80;;;;;;5089865;28;20087;-85
2021/06/06 01:42:15;;;;;;;11.15;7.80;;;15.20;89.70;;;;;;5095238;28;20028;-80
2021/06/06 01:44:45;;;;;;;13.93;8.90;;;15.10;90.40;;;;;;5094686;28;20509;-83
2021/06/06 01:47:19;;;;;;;12.25;8.88;;;15.00;91.00;;;;;;5077727;28;20063;-87
2021/06/06 01:49:50;;;;;;;11.10;8.43;;;15.00;91.30;;;;;;5095460;28;20063;-86
2021/06/06 01:52:17;;;;;;;8.82;6.95;;;15.10;91.10;;;;;;5095565;28;20181;-88
2021/06/06 01:54:44;;;;;;;10.82;7.60;;;15.00;91.30;;;;;;5098090;28;20052;-75
2021/06/06 01:57:14;;;;;;;13.50;7.95;;;15.10;91.60;;;;;;5108926;28;20024;-75
2021/06/06 01:59:45;;;;;;;9.40;7.20;;;15.20;91.20;;;;;;5119456;28;20028;-75
2021/06/06 02:02:11;;;;;;;8.18;6.53;;;15.20;91.60;;;;;;5099633;28;20074;-74
2021/06/06 02:04:38;;;;;;;9.68;7.10;;;15.30;91.10;;;;;;5094906;28;20591;-74
2021/06/06 02:07:19;;;;;;;9.35;7.75;;;15.30;90.90;;;;;;5094052;28;20062;-75
2021/06/06 02:09:50;;;;;;;9.15;6.95;;;15.30;90.80;;;;;;5094071;28;20028;-74
2021/06/06 02:12:16;;;;;;;11.50;7.43;;;15.30;90.70;;;;;;5094166;28;20099;-74
2021/06/06 02:14:44;;;;;;;9.02;7.15;;;15.30;91.10;;;;;;5094375;28;20413;-74
2021/06/06 02:17:20;;;;;;;8.82;6.53;;;15.30;91.50;;;;;;5094072;28;20016;-74
2021/06/06 02:19:47;;;;;;;10.05;7.47;;;15.30;90.90;;;;;;5075866;28;20028;-75
2021/06/06 02:22:15;;;;;;;10.25;7.40;;;15.20;90.20;;;;;;5093906;28;20027;-73
2021/06/06 02:24:42;;;;;;;7.80;6.75;;;15.20;90.10;;;;;;5092563;28;20039;-75
2021/06/06 02:27:16;;;;;;;8.85;6.60;;;15.10;90.70;;;;;;5094008;28;20524;-81
2021/06/06 02:30:05;;;;;;;10.93;7.38;;;15.00;90.70;;;;;;5096270;28;20484;-88
2021/06/06 02:32:55;;;;;;;8.95;6.80;;;15.00;91.10;;;;;;5087503;28;20040;-87
2021/06/06 02:35:32;;;;;;;7.93;6.10;;;14.90;91.10;;;;;;5095304;28;20423;-89
2021/06/06 02:38:13;;;;;;;8.55;6.40;;;15.00;91.00;;;;;;5104120;28;20086;-88
2021/06/06 02:40:39;;;;;;;7.72;5.75;;;14.90;91.00;;;;;;5095292;28;20016;-87
2021/06/06 02:43:16;;;;;;;8.77;6.00;;;15.00;90.80;;;;;;5096663;28;20477;-82
2021/06/06 02:45:42;;;;;;;9.98;6.18;;;15.00;90.80;;;;;;5100394;28;20024;-88
2021/06/06 02:48:15;;;;;;;8.95;6.13;;;15.00;91.00;;;;;;5103311;28;20082;-87
2021/06/06 02:50:44;;;;;;;8.77;6.18;;;14.90;91.60;;;;;;5099255;28;20042;-87
2021/06/06 02:53:34;;;;;;;11.13;7.00;;;14.80;92.00;;;;;;5094602;28;20555;-87
2021/06/06 02:56:12;;;;;;;8.52;6.78;;;14.90;91.70;;;;;;5094905;28;20057;-88
2021/06/06 02:58:47;;;;;;;6.95;5.38;;;14.90;91.60;;;;;;5094621;28;20469;-88
2021/06/06 03:01:19;;;;;;;6.82;5.47;;;15.00;91.60;;;;;;5094601;28;20024;-89
2021/06/06 03:03:45;;;;;;;7.38;5.82;;;15.00;91.40;;;;;;5095023;28;20032;-89
2021/06/06 03:06:20;;;;;;;5.47;4.82;;;15.00;91.20;;;;;;5096336;28;20028;-88
2021/06/06 03:08:46;;;;;;;7.88;5.20;;;14.90;91.40;;;;;;5100832;28;20366;-87
2021/06/06 03:11:13;;;;;;;5.53;3.95;;;14.90;91.90;;;;;;5094254;28;20039;-88
2021/06/06 03:13:50;;;;;;;6.28;4.25;;;14.80;91.60;;;;;;5094340;28;20024;-88
2021/06/06 03:16:18;;;;;;;6.20;4.63;;;14.80;91.60;;;;;;5111527;28;20004;-85
2021/06/06 03:18:48;;;;;;;6.00;4.68;;;14.80;91.50;;;;;;5105374;28;20061;-88
2021/06/06 03:21:18;;;;;;;4.47;3.80;;;14.90;91.00;;;;;;5114473;28;20022;-86
2021/06/06 03:23:48;;;;;;;5.53;4.10;;;15.00;90.80;;;;;;5114978;28;20035;-79
2021/06/06 03:26:14;;;;;;;5.43;3.67;;;14.90;90.90;;;;;;5105009;28;20028;-74
2021/06/06 03:28:42;;;;;;;6.72;4.15;;;14.80;90.70;;;;;;5112069;28;20024;-86
2021/06/06 03:31:16;;;;;;;4.55;3.58;;;14.80;91.60;;;;;;5095572;28;20028;-88
2021/06/06 03:33:57;;;;;;;4.50;4.03;;;14.90;92.00;;;;;;5095385;28;20020;-86
2021/06/06 03:36:29;;;;;;;7.13;3.95;;;14.80;91.20;;;;;;5094544;28;20477;-88
2021/06/06 03:38:56;;;;;;;3.40;3.10;;;14.80;91.20;;;;;;5094570;28;20536;-87
2021/06/06 03:41:23;;;;;;;4.38;3.58;;;14.80;90.60;;;;;;5093639;28;20024;-86
2021/06/06 03:43:50;;;;;;;3.05;2.75;;;14.90;90.80;;;;;;5093614;28;20103;-86
2021/06/06 03:46:17;;;;;;;3.05;2.78;;;14.90;90.80;;;;;;5093902;28;20038;-87
2021/06/06 03:48:43;;;;;;;3.78;3.40;;;15.00;90.60;;;;;;5093677;28;20016;-86
2021/06/06 03:51:09;;;;;;;3.38;2.97;;;15.10;90.30;;;;;;5093998;28;20039;-88
2021/06/06 03:53:38;;;;;;;2.22;2.03;;;15.10;90.20;;;;;;5093665;28;20076;-86
2021/06/06 03:56:06;;;;;;;3.55;2.80;;;15.10;90.10;;;;;;5093243;28;20020;-86
2021/06/06 03:58:31;;;;;;;3.85;2.22;;;15.20;90.10;;;;;;5093017;28;20055;-85
2021/06/06 04:00:57;;;;;;;2.95;2.65;;;15.30;89.90;;;;;;5093933;28;20032;-82
2021/06/06 04:03:23;;;;;;;2.67;2.47;;;15.30;89.80;;;;;;5079991;28;20098;-84
2021/06/06 04:05:50;;;;;;;5.53;3.45;;;15.30;89.10;;;;;;5103094;28;20445;-88
2021/06/06 04:08:16;;;;;;;3.83;2.88;;;15.30;89.20;;;;;;5108330;28;20056;-86
2021/06/06 04:10:42;;;;;;;3.20;2.70;;;15.30;89.70;;;;;;5100576;28;20567;-87
2021/06/06 04:13:09;;;;;;;3.92;2.65;;;15.30;89.20;;;;;;5097432;28;20020;-87
2021/06/06 04:15:34;;;;;;;4.10;2.78;;;15.40;89.10;;;;;;5098431;28;20473;-74
2021/06/06 04:18:18;;;;;;;3.10;2.60;;;15.30;88.90;;;;;;5110124;28;20103;-73
2021/06/06 04:20:46;;;;;;;2.95;2.45;;;15.30;89.10;;;;;;5120631;28;20050;-74
2021/06/06 04:23:12;;;;;;;2.35;2.10;;;15.30;89.00;;;;;;5102026;28;20020;-73
2021/06/06 04:25:38;;;;;;;2.78;2.30;;;15.30;89.10;;;;;;5096631;28;20074;-74
2021/06/06 04:28:05;;;;;;;2.08;1.90;;;15.30;89.20;;;;;;5095904;28;20024;-74
2021/06/06 04:30:30;;;;;;;2.63;2.22;;;15.30;88.90;;;;;;5096260;28;20638;-89
2021/06/06 04:32:56;;;;;;;2.90;2.25;;;15.30;88.60;;;;;;5096962;28;20020;-87
2021/06/06 04:35:22;;;;;;;2.72;2.20;;;15.40;88.50;;;;;;5079080;28;20480;-88
2021/06/06 04:37:48;;;;;;;2.53;1.98;;;15.40;88.40;;;;;;5096505;28;20027;-89
2021/06/06 04:40:16;;;;;;;2.63;2.33;;;15.40;88.20;;;;;;5096231;28;20107;-81
2021/06/06 04:42:42;;;;;;;2.80;2.15;;;15.40;88.10;;;;;;5095990;28;20099;-75
2021/06/06 04:45:10;;;;;;;3.38;2.60;;;15.40;88.20;;;;;;5096093;28;20028;-83
2021/06/06 04:47:35;;;;;;;4.07;2.78;;;15.40;88.70;;;;;;5096318;28;20039;-86
2021/06/06 04:50:02;;;;;;;3.50;3.10;;;15.30;89.10;;;;;;5096130;28;20481;-86
2021/06/06 04:52:35;;;;;;;3.65;2.78;;;15.30;89.10;;;;;;5096018;28;20618;-86
2021/06/06 04:55:09;;;;;;;3.00;2.50;;;15.30;89.10;;;;;;5096437;28;20040;-87
2021/06/06 04:57:35;;;;;;;2.75;2.30;;;15.30;89.70;;;;;;5096434;28;20020;-87
2021/06/06 05:00:02;;;;;;;3.13;2.58;;;15.30;89.70;;;;;;5102874;28;20039;-75
2021/06/06 05:02:28;;;;;;;5.10;2.92;;;15.30;89.60;;;;;;5105348;28;20020;-74
2021/06/06 05:04:54;;;;;;;2.72;2.50;;;15.30;89.90;;;;;;5099796;28;20435;-73
2021/06/06 05:07:20;;;;;;;3.33;3.03;;;15.30;89.90;;;;;;5095910;28;20028;-73
2021/06/06 05:09:47;;;;;;;2.83;2.28;;;15.40;90.00;;;;;;5094243;28;20036;-74
2021/06/06 05:12:12;;;;;;;2.60;2.40;;;15.40;89.80;;;;;;5095264;28;20025;-72
2021/06/06 05:14:38;;;;;;;2.85;1.85;;;15.40;90.00;;;;;;5094859;28;20090;-72
2021/06/06 05:17:04;;;;;;;2.50;2.30;;;15.40;89.80;;;;;;5095416;28;20562;-86
2021/06/06 05:19:29;;;;;;;1.75;1.65;;;15.40;89.50;;;;;;5095066;28;20495;-86
2021/06/06 05:21:55;;;;;;;3.50;2.28;;;15.40;89.60;;;;;;5095743;28;20385;-87
2021/06/06 05:24:20;;;;;;;1.98;1.70;;;15.40;89.80;;;;;;5095764;28;20028;-87
2021/06/06 05:26:46;;;;;;;1.98;1.63;;;15.50;89.70;;;;;;5095487;28;20380;-87
2021/06/06 05:29:12;;;;;;;1.92;1.42;;;15.50;89.40;;;;;;5095480;28;20155;-88
2021/06/06 05:31:37;;;;;;;2.15;1.48;;;15.60;89.40;;;;;;5096639;28;20035;-88
2021/06/06 05:34:03;;;;;;;2.90;2.10;;;15.60;88.40;;;;;;5098333;28;20036;-84
2021/06/06 05:36:29;;;;;;;2.25;2.05;;;15.60;88.30;;;;;;5099979;28;20024;-85
2021/06/06 05:38:54;;;;;;;1.48;1.38;;;15.40;89.00;;;;;;5077090;28;20031;-74
2021/06/06 05:41:20;;;;;;;1.98;1.35;;;15.40;89.10;;;;;;5094984;28;20443;-74
2021/06/06 05:43:45;;;;;;;1.50;1.35;;;15.50;89.00;;;;;;5094897;28;20055;-74
2021/06/06 05:46:17;;;;;;;1.40;1.27;;;15.50;88.80;;;;;;5094704;28;20032;-75
2021/06/06 05:48:43;;;;;;;1.67;1.10;;;15.50;88.80;;;;;;5094371;28;20016;-73
2021/06/06 05:51:09;;;;;;;1.25;1.15;;;15.60;88.10;;;;;;5094531;28;20081;-74
2021/06/06 05:53:36;;;;;;;1.33;1.02;;;15.60;87.90;;;;;;5093273;28;20147;-74
2021/06/06 05:56:04;;;;;;;0.75;0.75;;;15.60;88.20;;;;;;5093879;28;20396;-74
2021/06/06 05:58:30;;;;;;;0.80;0.80;;;15.50;88.20;;;;;;5093020;28;20027;-73
2021/06/06 06:00:56;;;;;;;1.23;1.10;;;15.50;88.30;;;;;;5093223;28;20492;-74
2021/06/06 06:03:22;;;;;;;1.50;0.90;;;15.50;89.60;;;;;;5076014;28;20028;-74
2021/06/06 06:05:48;;;;;;;1.27;0.98;;;15.50;88.60;;;;;;5093967;28;20027;-74
2021/06/06 06:08:23;;;;;;;2.45;0.80;;;15.40;88.30;;;;;;5094176;28;20032;-73
2021/06/06 06:10:49;;;;;;;;;;;15.40;88.50;;;;;;5094457;28;20499;-74
2021/06/06 06:13:15;;;;;;;;;;;15.40;88.60;;;;;;5094289;28;20002;-74
2021/06/06 06:15:41;;;;;;;0.55;0.43;;;15.50;88.10;;;;;;5093812;28;20269;-74
2021/06/06 06:18:08;;;;;;;0.40;0.40;;;15.50;87.60;;;;;;5093787;28;20026;-74
2021/06/06 06:20:34;;;;;;;0.40;0.40;;;15.40;87.80;;;;;;5093942;28;20035;-73
2021/06/06 06:22:59;;;;;;;0.57;0.50;;;15.50;88.00;;;;;;5093722;28;20396;-74
2021/06/06 06:25:25;;;;;;;1.35;0.77;;;15.60;88.00;;;;;;5092729;28;20376;-74
2021/06/06 06:27:51;;;;;;;1.45;0.82;;;15.60;88.10;;;;;;5093880;28;20057;-74
2021/06/06 06:30:23;;;;;;;1.25;0.70;;;15.60;88.20;;;;;;5093474;28;20131;-74
2021/06/06 06:32:48;;;;;;;0.90;0.85;;;15.60;88.10;;;;;;5092656;28;20486;-75
2021/06/06 06:35:14;;;;;;;0.60;0.60;;;15.70;88.70;;;;;;5093795;28;20099;-74
2021/06/06 06:37:40;;;;;;;0.93;0.70;;;15.60;88.30;;;;;;5094656;28;20143;-80
2021/06/06 06:40:07;;;;;;;0.77;0.75;;;15.70;88.30;;;;;;5094775;28;20062;-75
2021/06/06 06:42:33;;;;;;;0.80;0.63;;;15.80;88.40;;;;;;5093440;28;20027;-75
2021/06/06 06:44:59;;;;;;;0.60;0.60;;;15.80;88.10;;;;;;5093319;28;20125;-73
2021/06/06 06:47:33;;;;;;;;;;;15.80;87.80;;;;;;5147460;27;20147;-75
2021/06/06 06:49:58;;;;;;;;;;;15.80;87.60;;;;;;5131384;27;19908;-75
2021/06/06 06:52:25;;;;;;;1.00;0.63;;;15.80;87.00;;;;;;5131790;27;19956;-76
2021/06/06 06:54:50;;;;;;;1.58;0.80;;;15.80;86.90;;;;;;5131288;27;20091;-75
2021/06/06 06:57:17;;;;;;;0.60;0.60;;;15.80;87.50;;;;;;5130837;27;20070;-76
2021/06/06 06:59:42;;;;;;;1.38;0.70;;;15.80;87.70;;;;;;5132058;27;20456;-75
2021/06/06 07:02:08;;;;;;;1.55;0.70;;;15.80;87.90;;;;;;5132401;27;20030;-86
2021/06/06 07:04:34;;;;;;;0.82;0.60;;;15.90;87.50;;;;;;5132412;27;20391;-73
2021/06/06 07:07:00;;;;;;;0.70;0.70;;;15.90;86.70;;;;;;5131629;27;20043;-77
2021/06/06 07:09:26;;;;;;;0.43;0.40;;;16.00;86.40;;;;;;5136045;27;20075;-74
2021/06/06 07:11:54;;;;;;;0.77;0.73;;;16.00;86.20;;;;;;5137591;27;20024;-79
2021/06/06 07:14:20;;;;;;;0.50;0.40;;;16.00;86.30;;;;;;5147049;27;20011;-81
2021/06/06 07:16:45;;;;;;;0.60;0.43;;;16.00;85.90;;;;;;5147367;27;20080;-84
2021/06/06 07:19:11;;;;;;;5.93;1.60;;;15.90;85.50;;;;;;5133179;27;20051;-78
2021/06/06 07:21:37;;;;;;;2.42;0.80;;;16.10;90.40;;;;;;5130602;27;20472;-73
2021/06/06 07:24:04;;;;;;;1.73;0.80;;;16.30;87.70;;;;;;5130755;27;20015;-74
2021/06/06 07:26:34;;;;;;;0.82;0.60;;;16.50;86.40;;;;;;5130528;27;20039;-73
2021/06/06 07:29:04;;;;;;;1.35;0.75;;;16.60;85.10;;;;;;5130435;27;20012;-75
2021/06/06 07:31:30;;;;;;;1.88;0.88;;;16.90;84.30;;;;;;5130652;27;20032;-74
2021/06/06 07:33:56;;;;;;;9.55;0.90;;;17.00;82.60;;;;;;5130799;27;20024;-75
2021/06/06 07:36:22;;;;;;;3.05;0.50;;;17.10;82.20;;;;;;5130614;28;20051;-74
2021/06/06 07:38:50;;;;;;;18.10;2.17;;;17.10;81.10;;;;;;5130614;28;20020;-73
2021/06/06 07:41:18;;;;;;;27.85;2.53;;;17.20;81.60;;;;;;5130551;27;20034;-74
2021/06/06 07:43:44;;;;;;;3.38;0.50;;;17.20;81.70;;;;;;5130485;27;20031;-74
2021/06/06 07:46:10;;;;;;;2.97;1.30;;;17.20;81.20;;;;;;5130080;28;20052;-74
2021/06/06 07:48:35;;;;;;;2.80;0.80;;;17.20;81.60;;;;;;5130380;27;20020;-72
2021/06/06 07:51:01;;;;;;;0.50;0.50;;;17.20;81.40;;;;;;5130188;27;20035;-73
2021/06/06 07:53:27;;;;;;;0.80;0.40;;;17.30;80.30;;;;;;5130031;27;20072;-74
2021/06/06 07:55:54;;;;;;;1.20;0.40;;;17.20;80.10;;;;;;5130129;27;20030;-73
2021/06/06 07:58:23;;;;;;;0.22;0.22;;;17.20;80.70;;;;;;5119621;28;20495;-73
2021/06/06 08:00:49;;;;;;;0.30;0.30;;;16.80;81.70;;;;;;5116110;28;20024;-73
2021/06/06 08:03:16;;;;;;;0.30;0.30;;;16.60;83.30;;;;;;5115186;28;20077;-73
2021/06/06 08:05:43;;;;;;;0.43;0.40;;;16.20;85.60;;;;;;5116202;28;20036;-73
2021/06/06 08:08:11;;;;;;;1.00;0.30;;;16.30;85.90;;;;;;5116159;28;20024;-73
2021/06/06 08:10:38;;;;;;;0.38;0.30;;;16.50;85.90;;;;;;5116176;28;20099;-73
2021/06/06 08:13:04;;;;;;;0.35;0.32;;;16.70;85.50;;;;;;5116046;28;20487;-73
2021/06/06 08:15:30;;;;;;;0.20;0.20;;;16.80;84.40;;;;;;5116112;28;20028;-73
2021/06/06 08:17:57;;;;;;;0.30;0.20;;;16.90;83.80;;;;;;5116114;28;20471;-77
2021/06/06 08:20:28;;;;;;;1.25;0.45;;;17.00;84.30;;;;;;5117146;28;20472;-76
2021/06/06 08:22:54;;;;;;;0.40;0.20;;;17.00;83.30;;;;;;5118391;28;20053;-75
2021/06/06 08:25:21;;;;;;;0.57;0.50;;;16.30;85.20;;;;;;5117007;28;20052;-76
2021/06/06 08:27:49;;;;;;;0.20;0.20;;;16.00;87.40;;;;;;5117911;28;20027;-76
2021/06/06 08:30:22;;;;;;;0.20;0.20;;;15.60;88.80;;;;;;5116927;28;20015;-75
2021/06/06 08:32:48;;;;;;;0.40;0.20;;;15.40;89.80;;;;;;5116700;28;20388;-73
2021/06/06 08:35:14;;;;;;;0.60;0.40;;;15.40;92.00;;;;;;5117090;28;20016;-75
2021/06/06 08:37:40;;;;;;;0.60;0.50;;;15.60;91.70;;;;;;5116732;28;20031;-74
2021/06/06 08:40:09;;;;;;;0.73;0.47;;;15.70;92.10;;;;;;5116110;28;20388;-75
2021/06/06 08:42:40;;;;;;;1.90;0.90;;;15.90;91.60;;;;;;5117314;28;20042;-75
2021/06/06 08:45:13;;;;;;;4.82;1.98;;;16.00;90.40;;;;;;5117365;28;20392;-74
2021/06/06 08:47:40;;;;;;;5.65;2.75;;;16.10;88.90;;;;;;5115559;28;20092;-75
2021/06/06 08:50:21;;;;;;;4.03;2.45;;;16.00;88.70;;;;;;5116616;28;20030;-75
2021/06/06 08:53:12;;;;;;;3.33;1.80;;;16.10;88.90;;;;;;5116264;28;20422;-76
2021/06/06 08:55:58;;;;;;;5.28;1.95;;;16.10;89.00;;;;;;5096083;28;20028;-74
2021/06/06 08:58:36;;;;;;;3.00;1.60;;;16.20;88.90;;;;;;5096694;28;20024;-76
2021/06/06 09:01:11;;;;;;;2.90;1.88;;;16.30;88.60;;;;;;5108087;28;20464;-76
2021/06/06 09:03:36;;;;;;;2.33;1.45;;;16.40;87.10;;;;;;5117516;28;20105;-75
2021/06/06 09:06:09;;;;;;;1.38;1.00;;;16.50;87.10;;;;;;5117605;28;20036;-74
2021/06/06 09:08:38;;;;;;;1.85;1.10;;;16.50;86.80;;;;;;5121282;28;20034;-75
2021/06/06 09:11:07;;;;;;;1.15;0.80;;;16.40;87.90;;;;;;5117153;28;20027;-74
2021/06/06 09:13:33;;;;;;;1.02;0.82;;;16.40;88.60;;;;;;5115714;28;20031;-74
2021/06/06 09:16:22;;;;;;;1.00;0.90;;;16.60;87.20;;;;;;5116664;28;20027;-74
2021/06/06 09:19:02;;;;;;;1.85;0.82;;;16.70;86.40;;;;;;5117224;28;20020;-76
2021/06/06 09:21:27;;;;;;;2.97;0.77;;;16.70;86.60;;;;;;5116497;28;20034;-74
2021/06/06 09:24:05;;;;;;;1.60;0.80;;;16.80;85.80;;;;;;5116502;28;20094;-75
2021/06/06 09:26:31;;;;;;;1.00;0.73;;;16.80;85.00;;;;;;5117254;28;20074;-75
2021/06/06 09:29:17;;;;;;;0.60;0.60;;;16.80;86.00;;;;;;5118576;28;20024;-75
2021/06/06 09:31:43;;;;;;;3.10;0.90;;;16.70;85.30;;;;;;5119062;28;20102;-75
2021/06/06 09:34:16;;;;;;;2.35;0.98;;;16.60;85.30;;;;;;5117032;28;20446;-75
2021/06/06 09:36:57;;;;;;;0.82;0.70;;;16.40;87.80;;;;;;5116803;28;20399;-74
2021/06/06 09:39:24;;;;;;;2.10;0.95;;;16.00;89.20;;;;;;5116146;28;20051;-75
2021/06/06 09:41:59;;;;;;;1.60;0.75;;;16.00;88.40;;;;;;5116824;28;20069;-75
2021/06/06 09:44:31;;;;;;;1.40;0.90;;;15.80;91.00;;;;;;5115854;28;20054;-74
2021/06/06 09:47:16;;;;;;;2.92;0.70;;;15.50;92.50;;;;;;5115274;28;20047;-73
2021/06/06 09:49:47;;;;;;;2.75;1.05;;;15.50;93.60;;;;;;5115829;28;20023;-81
2021/06/06 09:52:15;;;;;;;2.22;0.60;;;15.90;93.10;;;;;;5114987;28;20077;-74
2021/06/06 09:54:50;;;;;;;1.58;0.60;;;16.30;90.10;;;;;;5114654;28;20026;-74
2021/06/06 09:57:29;;;;;;;1.17;0.80;;;16.60;88.10;;;;;;5114516;28;20012;-74
2021/06/06 10:00:27;;;;;;;1.10;0.80;;;16.80;85.90;;;;;;5114366;28;20023;-73
2021/06/06 10:02:57;;;;;;;1.33;0.90;;;16.80;85.40;;;;;;5094752;28;20119;-73
2021/06/06 10:05:22;;;;;;;0.85;0.65;;;16.50;86.80;;;;;;5112815;28;20051;-73
2021/06/06 10:08:01;;;;;;;3.85;2.88;;;16.20;89.20;;;;;;5114173;28;20054;-72
2021/06/06 10:10:34;;;;;;;10.13;4.18;;;16.30;88.70;;;;;;5114020;28;20023;-73
2021/06/06 10:13:04;;;;;;;5.45;3.97;;;16.40;89.40;;;;;;5113930;28;20024;-73
2021/06/06 10:15:34;;;;;;;4.15;1.60;;;16.70;87.10;;;;;;5114182;28;20115;-78
2021/06/06 10:18:08;;;;;;;3.17;1.15;;;17.00;86.40;;;;;;5114042;28;20016;-80
2021/06/06 10:20:44;;;;;;;1.83;0.80;;;17.10;85.20;;;;;;5112630;28;20020;-80
2021/06/06 10:23:15;;;;;;;1.73;0.68;;;17.20;84.80;;;;;;5114084;28;20491;-78
2021/06/06 10:25:49;;;;;;;1.88;0.90;;;17.30;84.40;;;;;;5112502;28;20072;-78
2021/06/06 10:28:20;;;;;;;1.47;0.80;;;17.30;84.80;;;;;;5114025;28;20102;-81
2021/06/06 10:30:52;;;;;;;2.85;0.90;;;17.30;84.50;;;;;;5113747;28;20375;-78
2021/06/06 10:33:27;;;;;;;3.38;1.23;;;17.30;84.20;;;;;;5113813;28;20055;-79
2021/06/06 10:35:53;;;;;;;1.90;1.27;;;17.30;84.30;;;;;;5113921;27;20050;-80
2021/06/06 10:38:20;;;;;;;4.47;1.20;;;17.40;86.40;;;;;;5112571;28;20030;-79
2021/06/06 10:40:54;;;;;;;8.30;4.45;;;17.50;83.70;;;;;;5114161;28;20408;-79
2021/06/06 10:43:54;;;;;;;14.02;3.65;;;17.50;84.70;;;;;;5113435;28;20028;-83
2021/06/06 10:46:27;;;;;;;3.85;2.60;;;17.50;83.40;;;;;;5117922;28;20605;-86
2021/06/06 10:49:21;;;;;;;3.28;1.02;;;17.60;82.80;;;;;;5120201;28;20024;-85
2021/06/06 10:51:52;;;;;;;1.58;1.08;;;17.60;83.40;;;;;;5117848;28;20049;-84
2021/06/06 10:54:25;;;;;;;3.95;1.08;;;17.50;83.30;;;;;;5119274;28;20437;-74
2021/06/06 10:56:57;;;;;;;3.97;1.58;;;17.50;83.80;;;;;;5113645;28;20028;-79
2021/06/06 11:00:01;;;;;;;20.30;10.43;;;17.60;83.00;;;;;;5113902;28;20106;-80
2021/06/06 11:02:32;;;;;;;7.38;4.13;;;17.50;83.80;;;;;;5051201;28;20107;-78
2021/06/06 11:05:00;;;;;;;2.42;1.38;;;17.50;83.70;;;;;;5114166;28;20024;-77
2021/06/06 11:07:31;;;;;;;2.53;1.70;;;17.60;83.30;;;;;;5114426;28;20061;-78
2021/06/06 11:10:18;;;;;;;6.50;2.60;;;17.40;83.50;;;;;;5115158;28;20028;-78
2021/06/06 11:12:53;;;;;;;3.08;1.45;;;17.50;83.90;;;;;;5113432;28;20019;-78
2021/06/06 11:15:41;;;;;;;4.60;2.30;;;17.60;84.10;;;;;;5113412;28;20453;-77
2021/06/06 11:18:19;;;;;;;3.25;2.17;;;17.80;83.50;;;;;;5113259;28;20020;-76
2021/06/06 11:20:48;;;;;;;11.15;3.42;;;17.80;83.20;;;;;;5113240;28;20502;-76
2021/06/06 11:23:18;;;;;;;14.90;3.35;;;17.80;83.10;;;;;;5113226;28;20024;-77
2021/06/06 11:25:49;;;;;;;20.42;4.50;;;17.90;83.00;;;;;;5112944;28;20034;-78
2021/06/06 11:28:35;;;;;;;8.13;4.68;;;17.70;83.20;;;;;;5113163;28;20408;-77
2021/06/06 11:31:18;;;;;;;6.80;4.28;;;17.80;82.90;;;;;;5113116;28;20027;-78
2021/06/06 11:33:53;;;;;;;8.57;5.13;;;17.80;83.00;;;;;;5115942;28;20532;-78
2021/06/06 11:36:28;;;;;;;;;;;17.90;82.90;;;;;;5117554;28;20084;-79
2021/06/06 11:38:53;;;;;;;15.10;7.20;;;17.80;82.30;;;;;;5115549;28;19910;-79
2021/06/06 11:41:22;;;;;;;50.67;9.52;;;17.80;82.20;;;;;;5116850;28;20098;-78
2021/06/06 11:43:53;;;;;;;12.15;8.05;;;17.90;82.40;;;;;;5116786;28;20070;-74
2021/06/06 11:46:24;;;;;;;11.98;6.38;;;17.90;82.50;;;;;;5116677;28;20050;-76
2021/06/06 11:49:23;;;;;;;13.73;8.00;;;17.70;83.30;;;;;;5116773;27;20094;-76
2021/06/06 11:51:50;;;;;;;11.45;7.18;;;17.50;84.00;;;;;;5116764;28;20024;-76
2021/06/06 11:54:29;;;;;;;10.65;7.20;;;17.50;84.30;;;;;;5116628;28;20491;-77
2021/06/06 11:57:00;;;;;;;12.32;7.32;;;17.40;84.30;;;;;;5116571;28;20028;-78
2021/06/06 11:59:33;;;;;;;11.85;8.70;;;17.30;84.80;;;;;;5117472;28;20027;-76
2021/06/06 12:02:07;;;;;;;13.95;9.07;;;17.20;84.90;;;;;;5117159;27;20409;-77
2021/06/06 12:04:36;;;;;;;17.45;9.88;;;17.10;86.10;;;;;;5116989;28;20084;-80
2021/06/06 12:07:25;;;;;;;17.38;10.65;;;16.90;86.90;;;;;;5118251;28;20030;-79
2021/06/06 12:09:52;;;;;;;17.35;11.07;;;16.70;87.70;;;;;;5116308;28;20022;-79
2021/06/06 12:12:28;;;;;;;14.40;8.77;;;16.70;88.70;;;;;;5116640;27;20349;-80
2021/06/06 12:15:02;;;;;;;18.48;10.50;;;16.60;88.90;;;;;;5120320;28;20020;-85
2021/06/06 12:17:28;;;;;;;21.30;10.27;;;16.40;89.90;;;;;;5122284;28;20023;-84
2021/06/06 12:19:57;;;;;;;18.73;10.68;;;16.20;91.20;;;;;;5117063;28;20498;-83
2021/06/06 12:22:33;;;;;;;17.42;10.57;;;16.20;91.60;;;;;;5117027;27;20049;-82
2021/06/06 12:25:06;;;;;;;20.10;11.55;;;16.30;91.70;;;;;;5115463;28;20142;-82
2021/06/06 12:27:33;;;;;;;15.50;10.60;;;16.40;91.70;;;;;;5117170;28;20384;-84
2021/06/06 12:30:10;;;;;;;15.50;9.02;;;16.40;91.40;;;;;;5114955;28;20028;-82
2021/06/06 12:32:39;;;;;;;15.95;10.15;;;16.60;92.00;;;;;;5115985;28;20027;-83
2021/06/06 12:35:13;;;;;;;12.40;8.70;;;16.50;90.50;;;;;;5116053;28;20020;-82
2021/06/06 12:37:40;;;;;;;18.55;9.38;;;16.50;90.70;;;;;;5116142;28;20073;-82
2021/06/06 12:40:07;;;;;;;16.55;9.90;;;16.60;90.40;;;;;;5116158;28;20023;-83
2021/06/06 12:42:32;;;;;;;15.43;9.32;;;16.50;90.50;;;;;;5116383;28;20023;-79
2021/06/06 12:45:03;;;;;;;14.65;9.68;;;16.50;91.30;;;;;;5115663;28;20020;-82
2021/06/06 12:47:42;;;;;;;13.02;8.60;;;16.50;91.10;;;;;;5119130;28;20050;-79
2021/06/06 12:50:07;;;;;;;11.73;8.18;;;16.60;90.80;;;;;;5116394;28;20464;-80
2021/06/06 12:52:42;;;;;;;11.45;8.05;;;16.60;90.70;;;;;;5115346;28;20111;-80
2021/06/06 12:55:28;;;;;;;12.93;8.38;;;16.70;90.40;;;;;;5115387;28;20012;-80
2021/06/06 12:58:00;;;;;;;15.30;9.63;;;16.70;89.70;;;;;;5115548;28;20016;-79
2021/06/06 13:00:35;;;;;;;15.75;10.60;;;16.70;89.00;;;;;;5115260;28;20023;-82
2021/06/06 13:03:04;;;;;;;17.55;11.57;;;16.50;88.90;;;;;;5115579;28;20024;-81